sensor_id;sensor_type;location;lat;lon;timestamp;temperature;humidity
15286;DHT22;7744;52.172;10.668;2023-09-12T00:01:15;19.70;20.70
15286;DHT22;7744;52.172;10.668;2023-09-12T00:03:41;19.70;3.20
15286;DHT22;7744;52.172;10.668;2023-09-12T00:06:06;19.80;38.70
15286;DHT22;7744;52.172;10.668;2023-09-12T00:08:32;19.80;1.00
15286;DHT22;7744;52.172;10.668;2023-09-12T00:11:02;19.80;4.70
15286;DHT22;7744;52.172;10.668;2023-09-12T00:13:28;19.80;1.00
15286;DHT22;7744;52.172;10.668;2023-09-12T00:15:54;19.80;1.00
15286;DHT22;7744;52.172;10.668;2023-09-12T00:18:19;19.80;1.00
15286;DHT22;7744;52.172;10.668;2023-09-12T00:20:45;19.80;1.00
15286;DHT22;7744;52.172;10.668;2023-09-12T00:23:11;19.80;1.00
15286;DHT22;7744;52.172;10.668;2023-09-12T00:25:36;19.70;1.00
15286;DHT22;7744;52.172;10.668;2023-09-12T00:28:02;19.70;1.00
15286;DHT22;7744;52.172;10.668;2023-09-12T00:30:27;19.70;1.00
15286;DHT22;7744;52.172;10.668;2023-09-12T00:32:53;19.70;1.00
15286;DHT22;7744;52.172;10.668;2023-09-12T00:35:19;19.70;5.10
15286;DHT22;7744;52.172;10.668;2023-09-12T00:37:44;19.70;1.00
15286;DHT22;7744;52.172;10.668;2023-09-12T00:40:10;19.70;79.80
15286;DHT22;7744;52.172;10.668;2023-09-12T00:42:36;19.70;53.80
15286;DHT22;7744;52.172;10.668;2023-09-12T00:45:01;19.50;99.90
15286;DHT22;7744;52.172;10.668;2023-09-12T00:47:28;19.50;99.90
15286;DHT22;7744;52.172;10.668;2023-09-12T00:49:55;19.50;99.90
15286;DHT22;7744;52.172;10.668;2023-09-12T00:52:26;19.50;99.90
15286;DHT22;7744;52.172;10.668;2023-09-12T00:54:54;19.50;99.90
15286;DHT22;7744;52.172;10.668;2023-09-12T00:57:21;19.50;99.90
15286;DHT22;7744;52.172;10.668;2023-09-12T00:59:47;19.50;99.90
15286;DHT22;7744;52.172;10.668;2023-09-12T01:02:13;19.50;99.90
15286;DHT22;7744;52.172;10.668;2023-09-12T01:04:40;19.40;99.90
15286;DHT22;7744;52.172;10.668;2023-09-12T01:07:06;19.30;99.90
15286;DHT22;7744;52.172;10.668;2023-09-12T01:09:32;19.30;99.90
15286;DHT22;7744;52.172;10.668;2023-09-12T01:11:59;19.30;99.90
15286;DHT22;7744;52.172;10.668;2023-09-12T01:14:26;19.30;99.90
15286;DHT22;7744;52.172;10.668;2023-09-12T01:16:51;19.30;99.90
15286;DHT22;7744;52.172;10.668;2023-09-12T01:19:18;19.30;99.90
15286;DHT22;7744;52.172;10.668;2023-09-12T01:27:18;19.30;99.90
15286;DHT22;7744;52.172;10.668;2023-09-12T01:29:46;19.30;99.90
15286;DHT22;7744;52.172;10.668;2023-09-12T01:32:14;19.30;99.90
15286;DHT22;7744;52.172;10.668;2023-09-12T01:34:39;19.20;99.90
15286;DHT22;7744;52.172;10.668;2023-09-12T01:37:05;19.20;99.90
15286;DHT22;7744;52.172;10.668;2023-09-12T01:39:31;19.20;99.90
15286;DHT22;7744;52.172;10.668;2023-09-12T01:41:58;19.20;99.90
15286;DHT22;7744;52.172;10.668;2023-09-12T01:44:25;19.20;1.00
15286;DHT22;7744;52.172;10.668;2023-09-12T01:46:53;19.10;1.00
15286;DHT22;7744;52.172;10.668;2023-09-12T01:49:21;19.10;1.00
15286;DHT22;7744;52.172;10.668;2023-09-12T01:51:48;19.00;1.00
15286;DHT22;7744;52.172;10.668;2023-09-12T01:54:14;18.90;1.00
15286;DHT22;7744;52.172;10.668;2023-09-12T01:56:40;18.90;33.30
15286;DHT22;7744;52.172;10.668;2023-09-12T01:59:07;18.90;1.00
15286;DHT22;7744;52.172;10.668;2023-09-12T02:01:32;18.90;1.00
15286;DHT22;7744;52.172;10.668;2023-09-12T02:03:58;19.00;1.00
15286;DHT22;7744;52.172;10.668;2023-09-12T02:06:23;19.00;1.00
15286;DHT22;7744;52.172;10.668;2023-09-12T02:08:49;18.80;54.50
15286;DHT22;7744;52.172;10.668;2023-09-12T02:11:15;18.80;24.40
15286;DHT22;7744;52.172;10.668;2023-09-12T02:13:40;18.80;38.80
15286;DHT22;7744;52.172;10.668;2023-09-12T02:16:06;18.90;3.50
15286;DHT22;7744;52.172;10.668;2023-09-12T02:18:31;18.90;1.00
15286;DHT22;7744;52.172;10.668;2023-09-12T02:20:58;18.80;1.00
15286;DHT22;7744;52.172;10.668;2023-09-12T02:23:24;18.80;6.80
15286;DHT22;7744;52.172;10.668;2023-09-12T02:25:49;18.90;1.00
15286;DHT22;7744;52.172;10.668;2023-09-12T02:28:15;18.90;1.00
15286;DHT22;7744;52.172;10.668;2023-09-12T02:30:41;18.90;1.00
15286;DHT22;7744;52.172;10.668;2023-09-12T02:33:07;18.90;1.00
15286;DHT22;7744;52.172;10.668;2023-09-12T02:35:32;18.90;1.00
15286;DHT22;7744;52.172;10.668;2023-09-12T02:37:58;18.90;1.00
15286;DHT22;7744;52.172;10.668;2023-09-12T02:40:24;18.80;25.50
15286;DHT22;7744;52.172;10.668;2023-09-12T02:42:49;18.80;4.60
15286;DHT22;7744;52.172;10.668;2023-09-12T02:45:15;18.80;56.40
15286;DHT22;7744;52.172;10.668;2023-09-12T02:47:40;18.80;6.90
15286;DHT22;7744;52.172;10.668;2023-09-12T02:50:09;18.80;1.00
15286;DHT22;7744;52.172;10.668;2023-09-12T02:52:34;18.80;1.00
15286;DHT22;7744;52.172;10.668;2023-09-12T02:55:00;18.80;1.00
15286;DHT22;7744;52.172;10.668;2023-09-12T02:57:25;18.90;1.00
15286;DHT22;7744;52.172;10.668;2023-09-12T02:59:51;18.90;1.00
15286;DHT22;7744;52.172;10.668;2023-09-12T03:02:16;18.80;1.00
15286;DHT22;7744;52.172;10.668;2023-09-12T03:04:42;18.80;1.00
15286;DHT22;7744;52.172;10.668;2023-09-12T03:07:08;18.80;1.00
15286;DHT22;7744;52.172;10.668;2023-09-12T03:09:33;18.80;99.90
15286;DHT22;7744;52.172;10.668;2023-09-12T03:12:01;18.80;1.00
15286;DHT22;7744;52.172;10.668;2023-09-12T03:14:28;18.80;21.10
15286;DHT22;7744;52.172;10.668;2023-09-12T03:16:54;18.80;69.80
15286;DHT22;7744;52.172;10.668;2023-09-12T03:19:19;18.80;99.90
15286;DHT22;7744;52.172;10.668;2023-09-12T03:21:45;18.80;46.10
15286;DHT22;7744;52.172;10.668;2023-09-12T03:24:10;18.50;1.00
15286;DHT22;7744;52.172;10.668;2023-09-12T03:26:36;18.50;1.00
15286;DHT22;7744;52.172;10.668;2023-09-12T03:29:03;18.60;1.00
15286;DHT22;7744;52.172;10.668;2023-09-12T03:31:28;18.60;1.00
15286;DHT22;7744;52.172;10.668;2023-09-12T03:33:54;18.60;1.00
15286;DHT22;7744;52.172;10.668;2023-09-12T03:36:20;18.70;1.00
15286;DHT22;7744;52.172;10.668;2023-09-12T03:38:45;18.60;1.00
15286;DHT22;7744;52.172;10.668;2023-09-12T03:41:11;18.60;1.00
15286;DHT22;7744;52.172;10.668;2023-09-12T03:43:37;18.60;1.00
15286;DHT22;7744;52.172;10.668;2023-09-12T03:46:03;18.60;1.00
15286;DHT22;7744;52.172;10.668;2023-09-12T03:48:32;18.60;1.00
15286;DHT22;7744;52.172;10.668;2023-09-12T03:50:57;18.60;1.00
15286;DHT22;7744;52.172;10.668;2023-09-12T03:53:23;18.60;1.00
15286;DHT22;7744;52.172;10.668;2023-09-12T03:55:49;18.60;1.00
15286;DHT22;7744;52.172;10.668;2023-09-12T03:58:14;18.60;1.00
15286;DHT22;7744;52.172;10.668;2023-09-12T04:00:40;18.60;1.00
15286;DHT22;7744;52.172;10.668;2023-09-12T04:03:05;18.60;1.00
15286;DHT22;7744;52.172;10.668;2023-09-12T04:05:31;18.50;1.00
15286;DHT22;7744;52.172;10.668;2023-09-12T04:07:57;18.50;1.00
15286;DHT22;7744;52.172;10.668;2023-09-12T04:10:22;18.50;1.00
15286;DHT22;7744;52.172;10.668;2023-09-12T04:12:48;18.50;1.00
15286;DHT22;7744;52.172;10.668;2023-09-12T04:15:14;18.50;1.00
15286;DHT22;7744;52.172;10.668;2023-09-12T04:17:39;18.50;1.00
15286;DHT22;7744;52.172;10.668;2023-09-12T04:20:05;18.50;1.00
15286;DHT22;7744;52.172;10.668;2023-09-12T04:22:31;18.50;1.00
15286;DHT22;7744;52.172;10.668;2023-09-12T04:24:57;18.60;1.00
15286;DHT22;7744;52.172;10.668;2023-09-12T04:27:22;18.60;1.00
15286;DHT22;7744;52.172;10.668;2023-09-12T04:29:48;18.50;1.00
15286;DHT22;7744;52.172;10.668;2023-09-12T04:32:13;18.50;1.00
15286;DHT22;7744;52.172;10.668;2023-09-12T04:34:42;18.50;1.00
15286;DHT22;7744;52.172;10.668;2023-09-12T04:37:08;18.50;1.00
15286;DHT22;7744;52.172;10.668;2023-09-12T04:39:33;18.50;1.00
15286;DHT22;7744;52.172;10.668;2023-09-12T04:41:59;18.50;1.00
15286;DHT22;7744;52.172;10.668;2023-09-12T04:44:24;18.50;1.00
15286;DHT22;7744;52.172;10.668;2023-09-12T04:46:50;18.50;1.00
15286;DHT22;7744;52.172;10.668;2023-09-12T04:49:16;18.50;66.10
15286;DHT22;7744;52.172;10.668;2023-09-12T04:51:41;18.40;99.90
15286;DHT22;7744;52.172;10.668;2023-09-12T04:54:08;18.30;1.00
15286;DHT22;7744;52.172;10.668;2023-09-12T04:56:34;18.20;1.00
15286;DHT22;7744;52.172;10.668;2023-09-12T04:58:59;18.20;15.20
15286;DHT22;7744;52.172;10.668;2023-09-12T05:01:25;18.30;1.00
15286;DHT22;7744;52.172;10.668;2023-09-12T05:03:51;18.40;1.00
15286;DHT22;7744;52.172;10.668;2023-09-12T05:06:17;18.40;1.00
15286;DHT22;7744;52.172;10.668;2023-09-12T05:08:42;18.40;99.90
15286;DHT22;7744;52.172;10.668;2023-09-12T05:11:08;18.40;99.90
15286;DHT22;7744;52.172;10.668;2023-09-12T05:13:34;18.40;99.90
15286;DHT22;7744;52.172;10.668;2023-09-12T05:16:00;18.50;99.90
15286;DHT22;7744;52.172;10.668;2023-09-12T05:18:25;18.50;99.90
15286;DHT22;7744;52.172;10.668;2023-09-12T05:20:51;18.60;73.10
15286;DHT22;7744;52.172;10.668;2023-09-12T05:23:16;18.60;99.90
15286;DHT22;7744;52.172;10.668;2023-09-12T05:25:42;18.60;99.90
15286;DHT22;7744;52.172;10.668;2023-09-12T05:28:07;18.60;1.00
15286;DHT22;7744;52.172;10.668;2023-09-12T05:30:33;18.70;1.00
15286;DHT22;7744;52.172;10.668;2023-09-12T05:32:59;18.70;1.00
15286;DHT22;7744;52.172;10.668;2023-09-12T05:35:24;18.80;99.90
15286;DHT22;7744;52.172;10.668;2023-09-12T05:37:50;18.80;1.00
15286;DHT22;7744;52.172;10.668;2023-09-12T05:40:18;18.90;99.90
15286;DHT22;7744;52.172;10.668;2023-09-12T05:42:44;19.00;99.90
15286;DHT22;7744;52.172;10.668;2023-09-12T05:45:09;19.10;99.90
15286;DHT22;7744;52.172;10.668;2023-09-12T05:47:35;19.10;99.90
15286;DHT22;7744;52.172;10.668;2023-09-12T05:50:01;19.30;99.90
15286;DHT22;7744;52.172;10.668;2023-09-12T05:52:29;19.30;99.90
15286;DHT22;7744;52.172;10.668;2023-09-12T05:54:56;19.30;99.90
15286;DHT22;7744;52.172;10.668;2023-09-12T05:57:21;19.40;99.90
15286;DHT22;7744;52.172;10.668;2023-09-12T05:59:47;19.50;99.90
15286;DHT22;7744;52.172;10.668;2023-09-12T06:02:13;19.60;1.00
15286;DHT22;7744;52.172;10.668;2023-09-12T06:04:38;19.70;1.00
15286;DHT22;7744;52.172;10.668;2023-09-12T06:07:04;19.90;1.00
15286;DHT22;7744;52.172;10.668;2023-09-12T06:09:30;20.00;1.00
15286;DHT22;7744;52.172;10.668;2023-09-12T06:11:56;20.10;99.90
15286;DHT22;7744;52.172;10.668;2023-09-12T06:14:22;20.10;1.00
15286;DHT22;7744;52.172;10.668;2023-09-12T06:16:48;20.20;99.90
15286;DHT22;7744;52.172;10.668;2023-09-12T06:19:13;20.30;99.90
15286;DHT22;7744;52.172;10.668;2023-09-12T06:21:43;20.20;1.00
15286;DHT22;7744;52.172;10.668;2023-09-12T06:24:14;20.20;1.00
15286;DHT22;7744;52.172;10.668;2023-09-12T06:26:40;20.30;1.00
15286;DHT22;7744;52.172;10.668;2023-09-12T06:29:06;20.50;99.90
15286;DHT22;7744;52.172;10.668;2023-09-12T06:31:32;20.70;99.90
15286;DHT22;7744;52.172;10.668;2023-09-12T06:33:57;20.70;99.90
15286;DHT22;7744;52.172;10.668;2023-09-12T06:36:25;20.80;99.90
15286;DHT22;7744;52.172;10.668;2023-09-12T06:38:50;20.80;99.90
15286;DHT22;7744;52.172;10.668;2023-09-12T06:41:19;20.80;99.90
15286;DHT22;7744;52.172;10.668;2023-09-12T06:43:45;20.90;99.90
15286;DHT22;7744;52.172;10.668;2023-09-12T06:46:10;20.90;99.90
15286;DHT22;7744;52.172;10.668;2023-09-12T06:48:36;21.10;99.90
15286;DHT22;7744;52.172;10.668;2023-09-12T06:51:05;20.90;99.90
15286;DHT22;7744;52.172;10.668;2023-09-12T06:53:31;20.90;99.90
15286;DHT22;7744;52.172;10.668;2023-09-12T06:55:56;20.70;99.90
15286;DHT22;7744;52.172;10.668;2023-09-12T06:58:25;20.70;1.00
15286;DHT22;7744;52.172;10.668;2023-09-12T07:00:51;20.70;1.00
15286;DHT22;7744;52.172;10.668;2023-09-12T07:03:17;20.70;1.00
15286;DHT22;7744;52.172;10.668;2023-09-12T07:05:43;20.70;1.00
15286;DHT22;7744;52.172;10.668;2023-09-12T07:08:09;20.60;1.00
15286;DHT22;7744;52.172;10.668;2023-09-12T07:10:35;20.50;1.00
15286;DHT22;7744;52.172;10.668;2023-09-12T07:13:01;20.40;1.00
15286;DHT22;7744;52.172;10.668;2023-09-12T07:15:27;20.40;1.00
15286;DHT22;7744;52.172;10.668;2023-09-12T07:17:52;20.40;69.60
15286;DHT22;7744;52.172;10.668;2023-09-12T07:20:18;20.30;1.00
15286;DHT22;7744;52.172;10.668;2023-09-12T07:22:46;20.20;99.90
15286;DHT22;7744;52.172;10.668;2023-09-12T07:25:13;20.00;1.00
15286;DHT22;7744;52.172;10.668;2023-09-12T07:27:39;20.00;97.70
15286;DHT22;7744;52.172;10.668;2023-09-12T07:30:06;19.90;99.90
15286;DHT22;7744;52.172;10.668;2023-09-12T07:32:32;19.80;99.90
15286;DHT22;7744;52.172;10.668;2023-09-12T07:34:58;19.80;1.00
15286;DHT22;7744;52.172;10.668;2023-09-12T07:37:23;19.70;99.90
15286;DHT22;7744;52.172;10.668;2023-09-12T07:39:49;19.70;99.90
15286;DHT22;7744;52.172;10.668;2023-09-12T07:42:14;19.90;1.00
15286;DHT22;7744;52.172;10.668;2023-09-12T07:44:40;19.90;99.90
15286;DHT22;7744;52.172;10.668;2023-09-12T07:47:07;19.90;99.90
15286;DHT22;7744;52.172;10.668;2023-09-12T07:49:32;20.20;99.90
15286;DHT22;7744;52.172;10.668;2023-09-12T07:51:58;20.60;1.00
15286;DHT22;7744;52.172;10.668;2023-09-12T07:54:23;20.90;1.00
15286;DHT22;7744;52.172;10.668;2023-09-12T07:56:49;21.10;99.90
15286;DHT22;7744;52.172;10.668;2023-09-12T07:59:14;21.30;1.00
15286;DHT22;7744;52.172;10.668;2023-09-12T08:01:40;21.50;1.00
15286;DHT22;7744;52.172;10.668;2023-09-12T08:04:06;21.60;1.00
15286;DHT22;7744;52.172;10.668;2023-09-12T08:06:32;21.50;1.00
15286;DHT22;7744;52.172;10.668;2023-09-12T08:08:58;21.70;99.90
15286;DHT22;7744;52.172;10.668;2023-09-12T08:11:24;21.80;99.90
15286;DHT22;7744;52.172;10.668;2023-09-12T08:13:50;22.00;99.90
15286;DHT22;7744;52.172;10.668;2023-09-12T08:16:16;22.20;99.90
15286;DHT22;7744;52.172;10.668;2023-09-12T08:18:42;22.30;99.90
15286;DHT22;7744;52.172;10.668;2023-09-12T08:21:08;22.40;99.90
15286;DHT22;7744;52.172;10.668;2023-09-12T08:23:33;22.60;99.90
15286;DHT22;7744;52.172;10.668;2023-09-12T08:26:00;22.80;99.90
15286;DHT22;7744;52.172;10.668;2023-09-12T08:28:25;23.00;99.90
15286;DHT22;7744;52.172;10.668;2023-09-12T08:30:51;23.00;99.90
15286;DHT22;7744;52.172;10.668;2023-09-12T08:33:16;23.10;41.60
15286;DHT22;7744;52.172;10.668;2023-09-12T08:35:42;23.30;43.60
15286;DHT22;7744;52.172;10.668;2023-09-12T08:38:08;23.30;54.50
15286;DHT22;7744;52.172;10.668;2023-09-12T08:40:34;23.30;65.80
15286;DHT22;7744;52.172;10.668;2023-09-12T08:43:01;23.50;45.70
15286;DHT22;7744;52.172;10.668;2023-09-12T08:45:29;23.60;34.40
15286;DHT22;7744;52.172;10.668;2023-09-12T08:47:58;23.60;52.30
15286;DHT22;7744;52.172;10.668;2023-09-12T08:50:24;23.60;48.10
15286;DHT22;7744;52.172;10.668;2023-09-12T08:52:50;23.50;33.30
15286;DHT22;7744;52.172;10.668;2023-09-12T08:55:16;23.30;21.00
15286;DHT22;7744;52.172;10.668;2023-09-12T08:57:43;23.30;45.20
15286;DHT22;7744;52.172;10.668;2023-09-12T09:00:10;23.20;20.60
15286;DHT22;7744;52.172;10.668;2023-09-12T09:02:39;23.10;36.30
15286;DHT22;7744;52.172;10.668;2023-09-12T09:05:07;23.20;31.40
15286;DHT22;7744;52.172;10.668;2023-09-12T09:07:39;23.20;37.70
15286;DHT22;7744;52.172;10.668;2023-09-12T09:10:06;23.30;47.30
15286;DHT22;7744;52.172;10.668;2023-09-12T09:12:33;23.20;35.90
15286;DHT22;7744;52.172;10.668;2023-09-12T09:15:19;23.30;13.90
15286;DHT22;7744;52.172;10.668;2023-09-12T09:17:45;23.40;7.00
15286;DHT22;7744;52.172;10.668;2023-09-12T09:20:27;23.50;1.00
15286;DHT22;7744;52.172;10.668;2023-09-12T09:23:00;23.70;1.00
15286;DHT22;7744;52.172;10.668;2023-09-12T09:25:27;23.70;1.00
15286;DHT22;7744;52.172;10.668;2023-09-12T09:27:53;23.90;1.00
15286;DHT22;7744;52.172;10.668;2023-09-12T09:30:44;23.90;1.00
15286;DHT22;7744;52.172;10.668;2023-09-12T09:33:11;23.90;1.00
15286;DHT22;7744;52.172;10.668;2023-09-12T09:35:37;23.70;1.00
15286;DHT22;7744;52.172;10.668;2023-09-12T09:38:06;23.80;1.00
15286;DHT22;7744;52.172;10.668;2023-09-12T09:40:33;23.90;1.00
15286;DHT22;7744;52.172;10.668;2023-09-12T09:43:00;23.80;1.00
15286;DHT22;7744;52.172;10.668;2023-09-12T09:45:27;23.70;1.00
15286;DHT22;7744;52.172;10.668;2023-09-12T09:47:57;23.90;1.00
15286;DHT22;7744;52.172;10.668;2023-09-12T09:50:23;24.00;1.00
15286;DHT22;7744;52.172;10.668;2023-09-12T09:52:56;24.10;1.00
15286;DHT22;7744;52.172;10.668;2023-09-12T09:55:23;24.20;1.00
15286;DHT22;7744;52.172;10.668;2023-09-12T09:57:50;24.30;1.00
15286;DHT22;7744;52.172;10.668;2023-09-12T10:00:20;24.30;1.00
15286;DHT22;7744;52.172;10.668;2023-09-12T10:02:46;24.30;1.00
15286;DHT22;7744;52.172;10.668;2023-09-12T10:05:14;23.90;1.00
15286;DHT22;7744;52.172;10.668;2023-09-12T10:07:46;23.60;60.60
15286;DHT22;7744;52.172;10.668;2023-09-12T10:10:12;23.50;99.90
15286;DHT22;7744;52.172;10.668;2023-09-12T10:12:51;23.10;99.90
15286;DHT22;7744;52.172;10.668;2023-09-12T10:15:21;23.20;99.90
15286;DHT22;7744;52.172;10.668;2023-09-12T10:17:56;23.20;99.90
15286;DHT22;7744;52.172;10.668;2023-09-12T10:20:27;23.10;99.90
15286;DHT22;7744;52.172;10.668;2023-09-12T10:23:03;23.10;99.90
15286;DHT22;7744;52.172;10.668;2023-09-12T10:25:35;23.20;99.90
15286;DHT22;7744;52.172;10.668;2023-09-12T10:28:03;23.50;99.90
15286;DHT22;7744;52.172;10.668;2023-09-12T10:30:29;23.50;99.90
15286;DHT22;7744;52.172;10.668;2023-09-12T10:32:57;23.70;99.90
15286;DHT22;7744;52.172;10.668;2023-09-12T10:35:22;24.10;99.90
15286;DHT22;7744;52.172;10.668;2023-09-12T10:37:49;24.20;99.90
15286;DHT22;7744;52.172;10.668;2023-09-12T10:40:17;24.30;99.90
15286;DHT22;7744;52.172;10.668;2023-09-12T10:42:42;24.50;99.90
15286;DHT22;7744;52.172;10.668;2023-09-12T10:45:09;24.10;99.90
15286;DHT22;7744;52.172;10.668;2023-09-12T10:47:36;24.10;99.90
15286;DHT22;7744;52.172;10.668;2023-09-12T10:50:02;24.00;99.90
15286;DHT22;7744;52.172;10.668;2023-09-12T10:52:29;23.80;99.90
15286;DHT22;7744;52.172;10.668;2023-09-12T10:54:55;23.70;99.90
15286;DHT22;7744;52.172;10.668;2023-09-12T10:57:21;23.90;99.90
15286;DHT22;7744;52.172;10.668;2023-09-12T11:00:10;23.90;99.90
15286;DHT22;7744;52.172;10.668;2023-09-12T11:02:42;24.20;99.90
15286;DHT22;7744;52.172;10.668;2023-09-12T11:08:00;24.40;92.90
15286;DHT22;7744;52.172;10.668;2023-09-12T11:10:27;24.50;26.10
15286;DHT22;7744;52.172;10.668;2023-09-12T11:12:55;24.30;10.70
15286;DHT22;7744;52.172;10.668;2023-09-12T11:15:26;24.30;1.00
15286;DHT22;7744;52.172;10.668;2023-09-12T11:18:05;24.40;1.00
15286;DHT22;7744;52.172;10.668;2023-09-12T11:20:51;24.60;1.00
15286;DHT22;7744;52.172;10.668;2023-09-12T11:23:18;24.90;1.00
15286;DHT22;7744;52.172;10.668;2023-09-12T11:25:44;25.00;1.00
15286;DHT22;7744;52.172;10.668;2023-09-12T11:28:11;24.90;1.00
15286;DHT22;7744;52.172;10.668;2023-09-12T11:30:37;24.70;1.00
15286;DHT22;7744;52.172;10.668;2023-09-12T11:33:20;24.50;1.00
15286;DHT22;7744;52.172;10.668;2023-09-12T11:35:46;24.60;1.00
15286;DHT22;7744;52.172;10.668;2023-09-12T11:38:29;24.90;1.00
15286;DHT22;7744;52.172;10.668;2023-09-12T11:40:55;25.00;1.00
15286;DHT22;7744;52.172;10.668;2023-09-12T11:43:25;24.80;1.00
15286;DHT22;7744;52.172;10.668;2023-09-12T11:45:51;24.90;1.00
15286;DHT22;7744;52.172;10.668;2023-09-12T11:48:18;25.00;1.00
15286;DHT22;7744;52.172;10.668;2023-09-12T11:50:50;25.00;1.00
15286;DHT22;7744;52.172;10.668;2023-09-12T11:53:20;25.20;1.00
15286;DHT22;7744;52.172;10.668;2023-09-12T11:55:48;24.90;1.00
15286;DHT22;7744;52.172;10.668;2023-09-12T11:58:17;24.70;1.00
15286;DHT22;7744;52.172;10.668;2023-09-12T12:00:55;24.80;1.00
15286;DHT22;7744;52.172;10.668;2023-09-12T12:03:25;24.80;1.00
15286;DHT22;7744;52.172;10.668;2023-09-12T12:05:51;24.90;1.00
15286;DHT22;7744;52.172;10.668;2023-09-12T12:08:18;24.80;1.00
15286;DHT22;7744;52.172;10.668;2023-09-12T12:10:44;24.80;1.00
15286;DHT22;7744;52.172;10.668;2023-09-12T12:13:18;24.90;1.00
15286;DHT22;7744;52.172;10.668;2023-09-12T12:15:43;24.80;1.00
15286;DHT22;7744;52.172;10.668;2023-09-12T12:18:09;24.80;1.00
15286;DHT22;7744;52.172;10.668;2023-09-12T12:20:35;24.80;1.00
15286;DHT22;7744;52.172;10.668;2023-09-12T12:23:01;24.80;1.00
15286;DHT22;7744;52.172;10.668;2023-09-12T12:25:27;25.00;1.00
15286;DHT22;7744;52.172;10.668;2023-09-12T12:27:56;24.90;1.00
15286;DHT22;7744;52.172;10.668;2023-09-12T12:30:22;24.90;1.00
15286;DHT22;7744;52.172;10.668;2023-09-12T12:32:47;24.90;1.00
15286;DHT22;7744;52.172;10.668;2023-09-12T12:35:19;24.80;1.00
15286;DHT22;7744;52.172;10.668;2023-09-12T12:37:52;24.90;1.00
15286;DHT22;7744;52.172;10.668;2023-09-12T12:40:19;24.40;1.00
15286;DHT22;7744;52.172;10.668;2023-09-12T12:42:45;24.50;1.00
15286;DHT22;7744;52.172;10.668;2023-09-12T12:45:19;24.70;1.00
15286;DHT22;7744;52.172;10.668;2023-09-12T12:47:44;24.10;1.00
15286;DHT22;7744;52.172;10.668;2023-09-12T12:50:11;24.30;1.00
15286;DHT22;7744;52.172;10.668;2023-09-12T12:52:38;24.30;1.00
15286;DHT22;7744;52.172;10.668;2023-09-12T12:55:11;24.50;1.00
15286;DHT22;7744;52.172;10.668;2023-09-12T12:57:38;24.60;1.00
15286;DHT22;7744;52.172;10.668;2023-09-12T13:00:11;24.30;1.00
15286;DHT22;7744;52.172;10.668;2023-09-12T13:02:38;24.10;1.00
15286;DHT22;7744;52.172;10.668;2023-09-12T13:05:06;24.30;1.00
15286;DHT22;7744;52.172;10.668;2023-09-12T13:07:34;24.30;1.00
15286;DHT22;7744;52.172;10.668;2023-09-12T13:10:01;24.70;1.00
15286;DHT22;7744;52.172;10.668;2023-09-12T13:12:28;24.90;1.00
15286;DHT22;7744;52.172;10.668;2023-09-12T13:14:54;24.80;1.00
15286;DHT22;7744;52.172;10.668;2023-09-12T13:17:19;24.90;1.00
15286;DHT22;7744;52.172;10.668;2023-09-12T13:19:45;25.10;1.00
15286;DHT22;7744;52.172;10.668;2023-09-12T13:22:11;24.70;1.00
15286;DHT22;7744;52.172;10.668;2023-09-12T13:24:36;24.70;1.00
15286;DHT22;7744;52.172;10.668;2023-09-12T13:27:02;24.70;1.00
15286;DHT22;7744;52.172;10.668;2023-09-12T13:29:27;24.60;1.00
15286;DHT22;7744;52.172;10.668;2023-09-12T13:31:53;24.50;1.00
15286;DHT22;7744;52.172;10.668;2023-09-12T13:34:18;24.50;1.00
15286;DHT22;7744;52.172;10.668;2023-09-12T13:36:44;24.60;1.00
15286;DHT22;7744;52.172;10.668;2023-09-12T13:39:10;24.50;1.00
15286;DHT22;7744;52.172;10.668;2023-09-12T13:41:38;24.50;1.00
15286;DHT22;7744;52.172;10.668;2023-09-12T13:44:05;24.70;1.00
15286;DHT22;7744;52.172;10.668;2023-09-12T13:46:31;24.70;1.00
15286;DHT22;7744;52.172;10.668;2023-09-12T13:48:57;24.80;1.00
15286;DHT22;7744;52.172;10.668;2023-09-12T13:51:26;24.90;1.00
15286;DHT22;7744;52.172;10.668;2023-09-12T13:53:52;25.00;1.00
15286;DHT22;7744;52.172;10.668;2023-09-12T13:56:17;25.00;1.00
15286;DHT22;7744;52.172;10.668;2023-09-12T13:58:43;25.10;1.00
15286;DHT22;7744;52.172;10.668;2023-09-12T14:01:08;25.30;1.00
15286;DHT22;7744;52.172;10.668;2023-09-12T14:03:34;25.20;1.00
15286;DHT22;7744;52.172;10.668;2023-09-12T14:06:00;25.10;1.00
15286;DHT22;7744;52.172;10.668;2023-09-12T14:08:25;25.30;1.00
15286;DHT22;7744;52.172;10.668;2023-09-12T14:10:51;25.30;1.00
15286;DHT22;7744;52.172;10.668;2023-09-12T14:13:16;25.40;1.00
15286;DHT22;7744;52.172;10.668;2023-09-12T14:15:42;25.10;1.00
15286;DHT22;7744;52.172;10.668;2023-09-12T14:18:07;25.10;1.00
15286;DHT22;7744;52.172;10.668;2023-09-12T14:20:33;25.00;1.00
15286;DHT22;7744;52.172;10.668;2023-09-12T14:22:59;25.30;1.00
15286;DHT22;7744;52.172;10.668;2023-09-12T14:25:25;25.30;1.00
15286;DHT22;7744;52.172;10.668;2023-09-12T14:27:50;25.30;1.00
15286;DHT22;7744;52.172;10.668;2023-09-12T14:30:16;25.30;1.00
15286;DHT22;7744;52.172;10.668;2023-09-12T14:32:41;25.40;1.00
15286;DHT22;7744;52.172;10.668;2023-09-12T14:35:07;25.30;1.00
15286;DHT22;7744;52.172;10.668;2023-09-12T14:37:33;25.40;1.00
15286;DHT22;7744;52.172;10.668;2023-09-12T14:40:04;25.30;1.00
15286;DHT22;7744;52.172;10.668;2023-09-12T14:42:31;25.20;1.00
15286;DHT22;7744;52.172;10.668;2023-09-12T14:44:57;25.20;1.00
15286;DHT22;7744;52.172;10.668;2023-09-12T14:47:23;25.20;1.00
15286;DHT22;7744;52.172;10.668;2023-09-12T14:49:49;25.10;1.00
15286;DHT22;7744;52.172;10.668;2023-09-12T14:52:15;25.20;1.00
15286;DHT22;7744;52.172;10.668;2023-09-12T14:54:40;25.10;1.00
15286;DHT22;7744;52.172;10.668;2023-09-12T14:57:06;25.20;1.00
15286;DHT22;7744;52.172;10.668;2023-09-12T14:59:32;25.10;1.00
15286;DHT22;7744;52.172;10.668;2023-09-12T15:01:57;25.10;1.00
15286;DHT22;7744;52.172;10.668;2023-09-12T15:04:23;25.00;1.00
15286;DHT22;7744;52.172;10.668;2023-09-12T15:06:49;25.10;1.00
15286;DHT22;7744;52.172;10.668;2023-09-12T15:09:15;25.20;1.00
15286;DHT22;7744;52.172;10.668;2023-09-12T15:11:40;25.00;1.00
15286;DHT22;7744;52.172;10.668;2023-09-12T15:14:06;25.10;1.00
15286;DHT22;7744;52.172;10.668;2023-09-12T15:16:32;25.00;1.00
15286;DHT22;7744;52.172;10.668;2023-09-12T15:19:00;24.80;1.00
15286;DHT22;7744;52.172;10.668;2023-09-12T15:21:26;24.70;1.00
15286;DHT22;7744;52.172;10.668;2023-09-12T15:23:52;24.60;1.00
15286;DHT22;7744;52.172;10.668;2023-09-12T15:26:18;24.60;1.00
15286;DHT22;7744;52.172;10.668;2023-09-12T15:28:44;24.70;1.00
15286;DHT22;7744;52.172;10.668;2023-09-12T15:31:09;24.80;1.00
15286;DHT22;7744;52.172;10.668;2023-09-12T15:33:35;24.90;1.00
15286;DHT22;7744;52.172;10.668;2023-09-12T15:36:00;24.90;1.00
15286;DHT22;7744;52.172;10.668;2023-09-12T15:38:27;24.80;1.00
15286;DHT22;7744;52.172;10.668;2023-09-12T15:40:53;24.70;1.00
15286;DHT22;7744;52.172;10.668;2023-09-12T15:43:19;24.60;1.00
15286;DHT22;7744;52.172;10.668;2023-09-12T15:45:45;24.50;1.00